createdAt,value
2022-08-17T00:01:51.255Z,97678.75
2022-08-17T00:04:19.454Z,97670.97
2022-08-17T00:06:49.148Z,97673.19
2022-08-17T00:09:18.640Z,97674.47
2022-08-17T00:12:41.879Z,97666.28
2022-08-17T00:14:36.904Z,97663.47
2022-08-17T00:17:06.650Z,97671.66
2022-08-17T00:19:35.932Z,97667.56
2022-08-17T00:22:32.815Z,97675.22
2022-08-17T00:24:53.080Z,97666.53
2022-08-17T00:27:19.609Z,97663.28
2022-08-17T00:29:46.219Z,97665.00
2022-08-17T00:33:12.121Z,97657.38
2022-08-17T00:35:04.852Z,97660.69
2022-08-17T00:37:31.530Z,97659.09
2022-08-17T00:39:58.160Z,97656.50
2022-08-17T00:42:28.936Z,97656.31
2022-08-17T00:44:57.713Z,97652.22
2022-08-17T00:47:24.278Z,97649.75
2022-08-17T00:49:51.194Z,97647.88
2022-08-17T00:52:21.669Z,97649.75
2022-08-17T00:54:49.683Z,97651.78
2022-08-17T00:57:23.448Z,97650.13
2022-08-17T01:00:03.153Z,97655.91
2022-08-17T01:02:34.940Z,97651.38
2022-08-17T01:05:13.781Z,97649.72
2022-08-17T01:07:40.905Z,97650.38
2022-08-17T01:10:57.430Z,97652.03
2022-08-17T01:12:56.760Z,97649.84
2022-08-17T01:15:23.479Z,97649.19
2022-08-17T01:17:50.241Z,97646.47
2022-08-17T01:20:16.905Z,97636.47
2022-08-17T01:22:43.570Z,97636.94
2022-08-17T01:25:12.608Z,97641.72
2022-08-17T01:27:39.710Z,97646.50
2022-08-17T01:30:57.851Z,97643.66
2022-08-17T01:32:56.714Z,97640.97
2022-08-17T01:35:23.344Z,97643.41
2022-08-17T01:37:49.995Z,97648.13
2022-08-17T01:40:41.279Z,97652.03
2022-08-17T01:43:15.378Z,97658.78
2022-08-17T01:45:47.135Z,97657.56
2022-08-17T01:48:14.404Z,97658.38
2022-08-17T01:50:43.552Z,97655.09
2022-08-17T01:53:16.985Z,97650.03
2022-08-17T01:55:50.507Z,97658.72
2022-08-17T01:58:18.304Z,97653.81
2022-08-17T02:00:46.759Z,97657.91
2022-08-17T02:03:27.009Z,97656.72
2022-08-17T02:05:54.043Z,97652.59
2022-08-17T02:08:21.543Z,97648.09
2022-08-17T02:11:11.611Z,97642.75
2022-08-17T02:13:38.765Z,97651.38
2022-08-17T02:16:05.479Z,97664.69
2022-08-17T02:18:32.124Z,97667.16
2022-08-17T02:20:59.225Z,97665.72
2022-08-17T02:23:27.825Z,97663.66
2022-08-17T02:25:55.732Z,97654.59
2022-08-17T02:28:22.352Z,97666.75
2022-08-17T02:31:01.488Z,97659.81
2022-08-17T02:33:42.555Z,97659.84
2022-08-17T02:36:12.187Z,97658.84
2022-08-17T02:38:39.750Z,97658.84
2022-08-17T02:41:06.702Z,97668.06
2022-08-17T02:43:33.419Z,97674.66
2022-08-17T02:46:00.065Z,97665.41
2022-08-17T02:48:30.627Z,97668.06
2022-08-17T02:50:59.019Z,97666.41
2022-08-17T02:53:25.913Z,97664.56
2022-08-17T02:55:52.816Z,97671.56
2022-08-17T02:58:34.820Z,97668.66
2022-08-17T03:01:07.443Z,97664.56
2022-08-17T03:03:34.882Z,97676.47
2022-08-17T03:06:01.863Z,97675.03
2022-08-17T03:08:28.861Z,97681.00
2022-08-17T03:10:55.928Z,97671.53
2022-08-17T03:13:23.023Z,97671.13
2022-08-17T03:15:50.594Z,97672.78
2022-08-17T03:18:25.387Z,97660.47
2022-08-17T03:20:58.393Z,97668.25
2022-08-17T03:23:26.289Z,97668.47
2022-08-17T03:25:54.575Z,97668.25
2022-08-17T03:28:22.180Z,97670.53
2022-08-17T03:30:49.361Z,97675.63
2022-08-17T03:33:16.878Z,97675.63
2022-08-17T03:35:44.084Z,97674.59
2022-08-17T03:38:12.443Z,97675.22
2022-08-17T03:40:57.509Z,97668.00
2022-08-17T03:43:30.304Z,97671.81
2022-08-17T03:46:27.900Z,97672.66
2022-08-17T03:49:22.541Z,97676.16
2022-08-17T03:52:08.004Z,97681.34
2022-08-17T03:54:53.191Z,97697.19
2022-08-17T03:57:20.319Z,97703.94
2022-08-17T03:59:47.601Z,97701.50
2022-08-17T04:02:20.364Z,97697.63
2022-08-17T04:04:50.997Z,97697.25
2022-08-17T04:07:20.755Z,97701.53
2022-08-17T04:09:47.594Z,97701.34
2022-08-17T04:12:16.167Z,97710.34
2022-08-17T04:14:52.658Z,97708.69
2022-08-17T04:17:27.832Z,97717.13
2022-08-17T04:19:55.193Z,97715.44
2022-08-17T04:22:30.869Z,97723.47
2022-08-17T04:25:08.292Z,97730.47
2022-08-17T04:27:35.315Z,97731.06
2022-08-17T04:30:02.165Z,97723.25
2022-08-17T04:33:03.551Z,97736.75
2022-08-17T04:35:21.451Z,97735.34
2022-08-17T04:37:48.215Z,97731.84
2022-08-17T04:40:34.201Z,97731.22
2022-08-17T04:43:09.395Z,97736.16
2022-08-17T04:45:41.025Z,97743.38
2022-08-17T04:48:22.735Z,97746.00
2022-08-17T04:50:54.598Z,97741.88
2022-08-17T04:53:21.765Z,97764.41
2022-08-17T04:55:48.757Z,97748.66
2022-08-17T04:58:15.447Z,97753.97
2022-08-17T05:00:42.529Z,97748.06
2022-08-17T05:03:09.107Z,97756.88
2022-08-17T05:05:37.528Z,97758.13
2022-08-17T05:08:06.431Z,97765.97
2022-08-17T05:10:37.389Z,97764.34
2022-08-17T05:13:17.561Z,97755.31
2022-08-17T05:15:46.934Z,97754.06
2022-08-17T05:18:15.479Z,97752.16
2022-08-17T05:20:42.150Z,97773.72
2022-08-17T05:23:14.818Z,97777.59
2022-08-17T05:25:47.328Z,97762.97
2022-08-17T05:28:16.004Z,97761.69
2022-08-17T05:30:43.354Z,97764.72
2022-08-17T05:33:13.058Z,97756.81
2022-08-17T05:35:44.404Z,97744.56
2022-08-17T05:38:11.339Z,97759.44
2022-08-17T05:40:38.369Z,97758.59
2022-08-17T05:43:10.973Z,97762.66
2022-08-17T05:45:55.784Z,97749.91
2022-08-17T05:48:39.479Z,97761.94
2022-08-17T05:51:12.804Z,97743.94
2022-08-17T05:54:07.056Z,97750.88
2022-08-17T05:56:52.761Z,97753.22
2022-08-17T05:59:43.513Z,97761.03
2022-08-17T06:02:26.896Z,97765.72
2022-08-17T06:05:11.062Z,97775.72
2022-08-17T06:08:04.030Z,97774.63
2022-08-17T06:10:38.472Z,97774.16
2022-08-17T06:13:24.935Z,97777.66
2022-08-17T06:16:02.087Z,97778.81
2022-08-17T06:18:40.800Z,97788.78
2022-08-17T06:21:07.922Z,97794.88
2022-08-17T06:23:46.382Z,97796.81
2022-08-17T06:26:16.747Z,97798.38
2022-08-17T06:28:59.426Z,97802.69
2022-08-17T06:31:29.138Z,97809.28
2022-08-17T06:33:57.391Z,97813.94
2022-08-17T06:37:16.422Z,97814.47
2022-08-17T06:39:51.405Z,97806.09
2022-08-17T06:43:05.026Z,97805.06
2022-08-17T06:45:35.731Z,97804.16
2022-08-17T06:48:26.155Z,97815.72
2022-08-17T06:51:00.020Z,97820.78
2022-08-17T06:54:11.791Z,97829.47
2022-08-17T06:56:53.443Z,97830.81
2022-08-17T06:59:30.469Z,97831.63
2022-08-17T07:02:20.383Z,97818.41
2022-08-17T07:05:07.794Z,97809.31
2022-08-17T07:07:56.644Z,97806.72
2022-08-17T07:10:25.859Z,97795.44
2022-08-17T07:12:55.513Z,97792.75
2022-08-17T07:15:31.675Z,97788.47
2022-08-17T07:17:59.628Z,97787.09
2022-08-17T07:20:26.940Z,97783.00
2022-08-17T07:23:05.641Z,97793.13
2022-08-17T07:25:32.479Z,97784.44
2022-08-17T07:28:02.468Z,97778.31
2022-08-17T07:30:47.129Z,97780.88
2022-08-17T07:33:31.589Z,97781.00
2022-08-17T07:35:58.332Z,97782.56
2022-08-17T07:38:33.729Z,97788.22
2022-08-17T07:41:05.036Z,97789.34
2022-08-17T07:43:37.753Z,97779.94
2022-08-17T07:46:38.275Z,97774.88
2022-08-17T07:49:07.681Z,97767.66
2022-08-17T07:51:43.251Z,97768.41
2022-08-17T07:54:15.579Z,97779.91
2022-08-17T07:57:12.678Z,97786.00
2022-08-17T07:59:43.175Z,97787.06
2022-08-17T08:02:31.658Z,97786.00
2022-08-17T08:05:08.799Z,97797.78
2022-08-17T08:07:51.374Z,97795.97
2022-08-17T08:10:35.650Z,97799.19
2022-08-17T08:13:16.307Z,97803.44
2022-08-17T08:15:54.356Z,97805.50
2022-08-17T08:18:38.754Z,97814.44
2022-08-17T08:21:39.123Z,97808.22
2022-08-17T08:24:42.502Z,97810.19
2022-08-17T08:27:21.139Z,97821.63
2022-08-17T08:30:00.855Z,97829.69
2022-08-17T08:32:48.043Z,97835.63
2022-08-17T08:35:34.340Z,97820.81
2022-08-17T08:38:19.953Z,97822.50
2022-08-17T08:40:52.283Z,97823.81
2022-08-17T08:43:22.338Z,97825.44
2022-08-17T08:46:19.679Z,97822.38
2022-08-17T08:49:39.041Z,97835.91
2022-08-17T08:52:22.865Z,97839.56
2022-08-17T08:55:17.938Z,97829.94
2022-08-17T08:57:50.941Z,97839.78
2022-08-17T09:00:20.677Z,97835.53
2022-08-17T09:02:55.625Z,97844.19
2022-08-17T09:06:00.687Z,97834.84
2022-08-17T09:08:39.133Z,97837.84
2022-08-17T09:12:02.931Z,97844.31
2022-08-17T09:14:50.757Z,97846.19
2022-08-17T09:17:21.614Z,97847.28
2022-08-17T09:20:06.719Z,97838.69
2022-08-17T09:22:47.329Z,97838.41
2022-08-17T09:25:21.667Z,97836.09
2022-08-17T09:28:09.352Z,97838.78
2022-08-17T09:30:45.450Z,97834.56
2022-08-17T09:33:15.938Z,97845.84
2022-08-17T09:35:47.027Z,97849.13
2022-08-17T09:38:28.127Z,97848.06
2022-08-17T09:41:23.980Z,97850.09
2022-08-17T09:44:13.529Z,97854.44
2022-08-17T09:46:55.354Z,97865.84
2022-08-17T09:49:28.109Z,97866.28
2022-08-17T09:52:00.485Z,97872.00
2022-08-17T09:54:40.166Z,97870.22
2022-08-17T09:57:31.630Z,97870.38
2022-08-17T10:00:17.903Z,97872.69
2022-08-17T10:02:54.428Z,97867.00
2022-08-17T10:05:59.170Z,97865.94
2022-08-17T10:08:52.305Z,97863.72
2022-08-17T10:12:05.672Z,97861.88
2022-08-17T10:15:07.915Z,97859.16
2022-08-17T10:17:36.617Z,97855.94
2022-08-17T10:20:14.414Z,97858.72
2022-08-17T10:23:30.730Z,97875.69
2022-08-17T10:26:18.992Z,97879.84
2022-08-17T10:28:52.796Z,97889.31
2022-08-17T10:31:41.032Z,97887.63
2022-08-17T10:34:13.373Z,97891.91
2022-08-17T10:37:31.445Z,97887.69
2022-08-17T10:40:17.567Z,97899.34
2022-08-17T10:42:48.995Z,97904.28
2022-08-17T10:45:26.133Z,97908.94
2022-08-17T10:48:04.785Z,97918.19
2022-08-17T10:50:59.802Z,97910.75
2022-08-17T10:53:32.456Z,97925.44
2022-08-17T10:56:11.547Z,97931.34
2022-08-17T10:58:53.954Z,97931.91
2022-08-17T11:01:32.930Z,97924.59
2022-08-17T11:04:09.840Z,97922.16
2022-08-17T11:06:39.069Z,97924.28
2022-08-17T11:09:16.369Z,97922.56
2022-08-17T11:11:58.684Z,97913.44
2022-08-17T11:14:34.857Z,97923.81
2022-08-17T11:17:30.020Z,97945.09
2022-08-17T11:20:13.184Z,97947.59
2022-08-17T11:22:57.836Z,97953.81
2022-08-17T11:25:39.185Z,97959.38
2022-08-17T11:28:19.200Z,97944.63
2022-08-17T11:30:58.846Z,97949.44
2022-08-17T11:33:29.751Z,97953.22
2022-08-17T11:36:10.153Z,97947.22
2022-08-17T11:38:53.880Z,97953.31
2022-08-17T11:41:45.065Z,97959.69
2022-08-17T11:44:27.617Z,97957.44
2022-08-17T11:48:09.047Z,97957.59
2022-08-17T11:51:35.690Z,97954.75
2022-08-17T11:57:26.633Z,97964.34
2022-08-17T12:00:10.657Z,97956.03
2022-08-17T12:02:48.168Z,97966.59
2022-08-17T12:05:16.826Z,97963.06
2022-08-17T12:07:52.827Z,97967.72
2022-08-17T12:10:22.088Z,97952.19
2022-08-17T12:12:50.371Z,97939.97
2022-08-17T12:15:28.543Z,97934.19
2022-08-17T12:17:57.052Z,97929.53
2022-08-17T12:20:30.453Z,97923.81
2022-08-17T12:23:06.251Z,97925.44
2022-08-17T12:25:56.918Z,97913.59
2022-08-17T12:28:32.503Z,97907.97
2022-08-17T12:31:04.835Z,97908.13
2022-08-17T12:33:31.468Z,97906.03
2022-08-17T12:36:02.852Z,97906.06
2022-08-17T12:38:34.367Z,97893.50
2022-08-17T12:41:21.397Z,97887.88
2022-08-17T12:44:23.666Z,97889.53
2022-08-17T12:47:19.390Z,97885.91
2022-08-17T12:49:50.607Z,97881.22
2022-08-17T12:52:27.703Z,97877.00
2022-08-17T12:55:21.297Z,97882.28
2022-08-17T12:57:54.121Z,97877.09
2022-08-17T13:00:30.482Z,97864.69
2022-08-17T13:03:09.670Z,97853.88
2022-08-17T13:05:43.557Z,97843.53
2022-08-17T13:08:14.687Z,97835.41
2022-08-17T13:10:41.596Z,97824.56
2022-08-17T13:13:23.367Z,97819.69
2022-08-17T13:15:56.122Z,97816.19
2022-08-17T13:18:42.078Z,97808.31
2022-08-17T13:21:22.270Z,97810.69
2022-08-17T13:24:01.658Z,97805.75
2022-08-17T13:26:37.385Z,97814.69
2022-08-17T13:29:23.828Z,97802.03
2022-08-17T13:32:22.920Z,97807.94
2022-08-17T13:35:14.303Z,97809.44
2022-08-17T13:37:40.659Z,97817.63
2022-08-17T13:40:09.269Z,97804.22
2022-08-17T13:42:51.799Z,97798.91
2022-08-17T13:45:36.470Z,97798.41
2022-08-17T13:48:11.815Z,97801.19
2022-08-17T13:50:42.039Z,97798.94
2022-08-17T13:53:17.683Z,97798.66
2022-08-17T13:55:53.603Z,97794.88
2022-08-17T13:58:27.166Z,97798.25
2022-08-17T14:00:54.302Z,97804.78
2022-08-17T14:03:21.015Z,97799.25
2022-08-17T14:05:50.066Z,97792.44
2022-08-17T14:08:19.181Z,97790.03
2022-08-17T14:10:50.160Z,97784.91
2022-08-17T14:13:16.740Z,97779.19
2022-08-17T14:15:54.950Z,97762.13
2022-08-17T14:18:31.186Z,97762.31
2022-08-17T14:21:10.283Z,97756.19
2022-08-17T14:23:37.142Z,97749.97
2022-08-17T14:26:04.367Z,97738.91
2022-08-17T14:28:30.979Z,97733.19
2022-08-17T14:31:00.343Z,97724.31
2022-08-17T14:33:28.429Z,97728.94
2022-08-17T14:35:57.402Z,97737.94
2022-08-17T14:38:24.011Z,97741.00
2022-08-17T14:40:50.660Z,97738.47
2022-08-17T14:43:18.698Z,97740.00
2022-08-17T14:45:45.372Z,97740.59
2022-08-17T14:48:12.012Z,97740.22
2022-08-17T14:50:41.019Z,97735.16
2022-08-17T14:53:10.064Z,97735.88
2022-08-17T14:55:39.701Z,97740.94
2022-08-17T14:58:06.911Z,97739.09
2022-08-17T15:00:33.703Z,97739.97
2022-08-17T15:03:01.287Z,97740.78
2022-08-17T15:05:33.935Z,97741.75
2022-08-17T15:08:01.341Z,97744.88
2022-08-17T15:10:29.260Z,97736.66
2022-08-17T15:12:56.255Z,97739.69
2022-08-17T15:15:23.337Z,97739.47
2022-08-17T15:17:51.159Z,97740.66
2022-08-17T15:20:21.388Z,97748.66
2022-08-17T15:22:49.795Z,97749.13
2022-08-17T15:25:17.575Z,97746.97
2022-08-17T15:27:44.251Z,97733.53
2022-08-17T15:30:11.735Z,97728.72
2022-08-17T15:32:40.860Z,97732.53
2022-08-17T15:35:12.843Z,97731.63
2022-08-17T15:37:40.398Z,97722.00
2022-08-17T15:40:09.026Z,97725.59
2022-08-17T15:42:35.907Z,97715.38
2022-08-17T15:45:12.519Z,97714.00
2022-08-17T15:47:39.952Z,97715.06
2022-08-17T15:50:08.005Z,97715.78
2022-08-17T15:52:40.002Z,97728.28
2022-08-17T15:55:10.890Z,97727.91
2022-08-17T15:57:37.768Z,97728.47
2022-08-17T16:00:06.012Z,97724.13
2022-08-17T16:03:16.134Z,97725.25
2022-08-17T16:05:31.063Z,97714.50
2022-08-17T16:07:59.597Z,97717.91
2022-08-17T16:10:35.257Z,97708.41
2022-08-17T16:13:03.811Z,97720.69
2022-08-17T16:15:33.337Z,97717.22
2022-08-17T16:18:00.005Z,97705.97
2022-08-17T16:20:26.636Z,97708.22
2022-08-17T16:22:54.527Z,97710.69
2022-08-17T16:25:38.871Z,97706.91
2022-08-17T16:28:13.573Z,97693.66
2022-08-17T16:30:41.253Z,97698.06
2022-08-17T16:33:11.360Z,97701.72
2022-08-17T16:35:38.004Z,97698.19
2022-08-17T16:38:04.803Z,97697.38
2022-08-17T16:40:36.089Z,97694.94
2022-08-17T16:43:03.719Z,97691.41
2022-08-17T16:45:36.325Z,97695.75
2022-08-17T16:48:03.143Z,97687.34
2022-08-17T16:50:29.717Z,97691.19
2022-08-17T16:53:08.556Z,97699.59
2022-08-17T16:55:35.761Z,97701.25
2022-08-17T16:58:04.556Z,97696.38
2022-08-17T17:00:33.351Z,97693.88
2022-08-17T17:03:19.408Z,97694.19
2022-08-17T17:06:09.032Z,97690.91
2022-08-17T17:09:14.086Z,97686.03
2022-08-17T17:11:46.290Z,97668.13
2022-08-17T17:14:38.764Z,97674.91
2022-08-17T17:17:05.271Z,97684.59
2022-08-17T17:19:48.870Z,97691.88
2022-08-17T17:22:30.996Z,97701.28
2022-08-17T17:25:06.623Z,97704.25
2022-08-17T17:27:47.273Z,97700.72
2022-08-17T17:30:21.624Z,97703.09
2022-08-17T17:32:55.007Z,97701.69
2022-08-17T17:35:28.999Z,97696.50
2022-08-17T17:37:57.384Z,97697.81
2022-08-17T17:40:32.299Z,97701.00
2022-08-17T17:43:20.600Z,97691.72
2022-08-17T17:45:55.633Z,97691.69
2022-08-17T17:48:22.354Z,97688.41
2022-08-17T17:51:11.907Z,97688.59
2022-08-17T17:53:43.495Z,97678.59
2022-08-17T17:56:43.065Z,97676.13
2022-08-17T17:59:29.615Z,97672.56
2022-08-17T18:02:37.166Z,97682.72
2022-08-17T18:05:12.242Z,97680.69
2022-08-17T18:07:46.390Z,97685.16
2022-08-17T18:10:45.261Z,97678.59
2022-08-17T18:13:18.046Z,97681.09
2022-08-17T18:15:53.962Z,97687.09
2022-08-17T18:18:38.163Z,97686.81
2022-08-17T18:21:20.342Z,97685.50
2022-08-17T18:23:52.177Z,97689.50
2022-08-17T18:26:44.770Z,97684.41
2022-08-17T18:32:26.346Z,97688.13
2022-08-17T18:35:10.253Z,97683.31
2022-08-17T18:37:49.155Z,97685.53
2022-08-17T18:40:23.341Z,97694.00
2022-08-17T18:42:59.080Z,97699.22
2022-08-17T18:45:35.917Z,97698.25
2022-08-17T18:48:02.647Z,97697.56
2022-08-17T18:50:39.626Z,97701.81
2022-08-17T18:53:26.742Z,97708.16
2022-08-17T18:56:26.746Z,97708.28
2022-08-17T18:59:30.223Z,97708.69
2022-08-17T19:01:59.226Z,97703.44
2022-08-17T19:04:34.004Z,97700.63
2022-08-17T19:07:07.840Z,97708.88
2022-08-17T19:09:38.862Z,97715.53
2022-08-17T19:12:09.133Z,97716.47
2022-08-17T19:14:35.959Z,97726.66
2022-08-17T19:17:11.741Z,97743.03
2022-08-17T19:19:49.341Z,97751.59
2022-08-17T19:22:58.121Z,97759.28
2022-08-17T19:25:29.775Z,97745.63
2022-08-17T19:28:32.744Z,97739.00
2022-08-17T19:31:04.502Z,97745.66
2022-08-17T19:33:31.541Z,97753.94
2022-08-17T19:36:07.495Z,97737.16
2022-08-17T19:38:44.021Z,97741.13
2022-08-17T19:41:24.190Z,97735.84
2022-08-17T19:44:15.427Z,97742.28
2022-08-17T19:47:08.099Z,97736.53
2022-08-17T19:49:56.073Z,97735.50
2022-08-17T19:52:41.418Z,97728.72
2022-08-17T19:55:31.914Z,97717.63
2022-08-17T19:58:06.995Z,97707.69
2022-08-17T20:00:38.788Z,97709.91
2022-08-17T20:03:16.452Z,97714.94
2022-08-17T20:06:11.539Z,97716.34
2022-08-17T20:08:40.970Z,97721.91
2022-08-17T20:11:18.705Z,97713.31
2022-08-17T20:14:13.724Z,97713.75
2022-08-17T20:16:40.405Z,97721.47
2022-08-17T20:19:35.981Z,97724.03
2022-08-17T20:22:17.696Z,97733.06
2022-08-17T20:25:06.288Z,97737.63
2022-08-17T20:27:49.816Z,97741.00
2022-08-17T20:30:23.490Z,97744.94
2022-08-17T20:32:57.001Z,97744.00
2022-08-17T20:35:25.900Z,97743.97
2022-08-17T20:37:58.656Z,97743.72
2022-08-17T20:40:32.140Z,97745.00
2022-08-17T20:42:59.220Z,97742.56
2022-08-17T20:45:26.273Z,97742.38
2022-08-17T20:48:36.309Z,97736.44
2022-08-17T20:50:55.617Z,97736.13
2022-08-17T20:53:47.114Z,97737.78
2022-08-17T20:56:44.685Z,97745.25
2022-08-17T20:59:27.601Z,97757.00
2022-08-17T21:02:12.436Z,97763.69
2022-08-17T21:04:52.268Z,97765.34
2022-08-17T21:07:52.494Z,97778.19
2022-08-17T21:10:31.953Z,97784.81
2022-08-17T21:13:15.690Z,97792.53
2022-08-17T21:15:43.864Z,97792.63
2022-08-17T21:18:28.951Z,97787.50
2022-08-17T21:21:23.984Z,97792.63
2022-08-17T21:24:27.424Z,97800.00
2022-08-17T21:27:31.799Z,97791.47
2022-08-17T21:30:09.961Z,97792.19
2022-08-17T21:32:40.486Z,97788.25
2022-08-17T21:35:12.357Z,97790.59
2022-08-17T21:37:48.461Z,97794.69
2022-08-17T21:40:18.417Z,97797.03
2022-08-17T21:42:48.620Z,97800.06
2022-08-17T21:45:25.775Z,97804.75
2022-08-17T21:48:15.300Z,97808.97
2022-08-17T21:50:44.839Z,97815.38
2022-08-17T21:53:25.402Z,97809.19
2022-08-17T21:55:53.972Z,97827.28
2022-08-17T21:58:40.883Z,97831.50
2022-08-17T22:01:21.638Z,97840.59
2022-08-17T22:04:02.257Z,97842.69
2022-08-17T22:06:42.094Z,97862.56
2022-08-17T22:09:21.027Z,97859.13
2022-08-17T22:12:11.425Z,97872.09
2022-08-17T22:14:51.839Z,97878.84
2022-08-17T22:17:27.966Z,97887.91
2022-08-17T22:20:16.861Z,97896.25
2022-08-17T22:23:04.844Z,97897.41
2022-08-17T22:25:34.061Z,97915.94
2022-08-17T22:28:03.530Z,97926.00
2022-08-17T22:30:38.085Z,97938.81
2022-08-17T22:33:37.379Z,97955.44
2022-08-17T22:36:11.912Z,97965.81
2022-08-17T22:38:41.018Z,97975.63
2022-08-17T22:41:15.847Z,97990.03
2022-08-17T22:43:43.699Z,97994.22
2022-08-17T22:46:12.065Z,97984.75
2022-08-17T22:48:50.157Z,97989.66
2022-08-17T22:51:26.271Z,97999.97
2022-08-17T22:54:14.202Z,97994.72
2022-08-17T22:57:08.656Z,98009.63
2022-08-17T22:59:55.472Z,98011.75
2022-08-17T23:02:34.109Z,98009.63
2022-08-17T23:05:10.143Z,98024.34
2022-08-17T23:07:37.312Z,98028.56
2022-08-17T23:10:06.454Z,98030.03
2022-08-17T23:12:38.890Z,98038.56
2022-08-17T23:15:14.288Z,98041.25
2022-08-17T23:17:42.133Z,98055.81
2022-08-17T23:20:12.458Z,98054.63
2022-08-17T23:22:51.089Z,98057.16
2022-08-17T23:25:26.367Z,98045.16
2022-08-17T23:27:53.229Z,98043.94
2022-08-17T23:30:20.136Z,98043.81
2022-08-17T23:32:53.583Z,98050.09
2022-08-17T23:35:40.426Z,98050.78
2022-08-17T23:38:11.553Z,98046.97
2022-08-17T23:40:39.489Z,98043.47
2022-08-17T23:43:17.400Z,98039.13
2022-08-17T23:45:55.305Z,98034.22
2022-08-17T23:48:36.062Z,98029.88
2022-08-17T23:51:05.866Z,98022.66
2022-08-17T23:53:34.687Z,98016.13
2022-08-17T23:56:09.126Z,98023.75
2022-08-17T23:58:38.554Z,98027.09
